createdAt,value
2022-12-15T00:01:32.533Z,99.12
2022-12-15T00:04:36.427Z,98.73
2022-12-15T00:07:40.361Z,97.71
2022-12-15T00:10:44.202Z,97.13
2022-12-15T00:13:48.140Z,97.65
2022-12-15T00:16:52.039Z,98.02
2022-12-15T00:19:55.691Z,98.05
2022-12-15T00:23:00.610Z,98.48
2022-12-15T00:26:04.393Z,98.85
2022-12-15T00:29:08.159Z,98.45
2022-12-15T00:32:11.792Z,99.02
2022-12-15T00:35:15.706Z,98.02
2022-12-15T00:38:31.678Z,97.66
2022-12-15T00:41:18.337Z,97.23
2022-12-15T00:44:03.672Z,96.70
2022-12-15T00:46:54.650Z,96.70
2022-12-15T00:49:58.513Z,96.54
2022-12-15T00:53:02.361Z,96.56
2022-12-15T00:56:06.140Z,95.64
2022-12-15T00:59:11.135Z,96.02
2022-12-15T01:02:14.925Z,95.31
2022-12-15T01:05:18.735Z,95.43
2022-12-15T01:08:22.789Z,95.30
2022-12-15T01:11:26.841Z,96.13
2022-12-15T01:14:30.769Z,97.02
2022-12-15T01:17:35.226Z,96.37
2022-12-15T01:20:20.453Z,95.87
2022-12-15T01:23:05.813Z,95.90
2022-12-15T01:25:52.540Z,95.72
2022-12-15T01:28:37.527Z,96.54
2022-12-15T01:31:22.849Z,97.01
2022-12-15T01:34:07.702Z,97.26
2022-12-15T01:36:52.834Z,97.07
2022-12-15T01:39:56.751Z,97.12
2022-12-15T01:42:42.405Z,96.72
2022-12-15T01:45:27.640Z,96.40
2022-12-15T01:48:17.744Z,96.19
2022-12-15T01:51:14.973Z,95.55
2022-12-15T01:54:00.349Z,96.27
2022-12-15T01:56:58.921Z,95.63
2022-12-15T01:59:51.642Z,96.37
2022-12-15T02:02:40.440Z,96.50
2022-12-15T02:05:28.404Z,97.19
2022-12-15T02:08:13.896Z,97.22
2022-12-15T02:11:18.621Z,97.27
2022-12-15T02:14:09.172Z,97.70
2022-12-15T02:17:03.959Z,97.78
2022-12-15T02:20:13.802Z,97.88
2022-12-15T02:23:04.769Z,98.82
2022-12-15T02:26:14.700Z,99.21
2022-12-15T02:29:13.219Z,99.06
2022-12-15T02:32:30.923Z,98.24
2022-12-15T02:35:26.143Z,97.62
2022-12-15T02:38:12.167Z,97.89
2022-12-15T02:40:59.389Z,98.04
2022-12-15T02:43:44.678Z,98.22
2022-12-15T02:46:58.351Z,98.81
2022-12-15T02:49:58.733Z,98.73
2022-12-15T02:53:14.323Z,98.32
2022-12-15T02:56:19.141Z,98.56
2022-12-15T02:59:17.551Z,98.03
2022-12-15T03:02:06.717Z,98.30
2022-12-15T03:04:52.614Z,99.01
2022-12-15T03:07:37.412Z,98.87
2022-12-15T03:10:25.762Z,99.11
2022-12-15T03:13:10.565Z,98.71
2022-12-15T03:15:55.842Z,98.30
2022-12-15T03:18:41.111Z,98.46
2022-12-15T03:21:26.419Z,98.14
2022-12-15T03:24:11.698Z,98.75
2022-12-15T03:26:56.827Z,98.68
2022-12-15T03:29:41.970Z,98.14
2022-12-15T03:32:28.341Z,98.07
2022-12-15T03:35:13.780Z,98.26
2022-12-15T03:37:58.973Z,97.86
2022-12-15T03:40:44.477Z,97.94
2022-12-15T03:43:29.990Z,98.69
2022-12-15T03:46:15.428Z,97.84
2022-12-15T03:49:00.809Z,98.00
2022-12-15T03:51:46.244Z,98.51
2022-12-15T03:54:31.545Z,97.96
2022-12-15T03:57:16.421Z,97.88
2022-12-15T04:00:01.832Z,97.62
2022-12-15T04:02:50.067Z,98.03
2022-12-15T04:05:36.055Z,98.41
2022-12-15T04:08:26.700Z,98.39
2022-12-15T04:11:11.946Z,98.77
2022-12-15T04:13:57.086Z,98.32
2022-12-15T04:16:42.145Z,98.48
2022-12-15T04:19:45.822Z,98.35
2022-12-15T04:22:30.996Z,98.31
2022-12-15T04:25:37.589Z,98.17
2022-12-15T04:28:41.551Z,97.85
2022-12-15T04:31:48.311Z,97.98
2022-12-15T04:34:52.158Z,97.98
2022-12-15T04:37:56.193Z,98.66
2022-12-15T04:40:59.901Z,98.89
2022-12-15T04:44:03.567Z,98.51
2022-12-15T04:47:07.406Z,98.23
2022-12-15T04:50:11.174Z,98.59
2022-12-15T04:53:14.989Z,98.22
2022-12-15T04:56:18.998Z,97.98
2022-12-15T04:59:23.155Z,97.76
2022-12-15T05:02:27.134Z,97.82
2022-12-15T05:05:30.981Z,97.78
2022-12-15T05:08:34.883Z,97.99
2022-12-15T05:11:38.938Z,98.21
2022-12-15T05:14:42.986Z,98.36
2022-12-15T05:17:47.852Z,98.31
2022-12-15T05:20:51.928Z,97.33
2022-12-15T05:23:55.735Z,97.51
2022-12-15T05:26:59.580Z,97.54
2022-12-15T05:30:03.543Z,97.86
2022-12-15T05:32:49.928Z,97.26
2022-12-15T05:35:35.339Z,97.79
2022-12-15T05:38:20.445Z,97.40
2022-12-15T05:41:05.795Z,97.49
2022-12-15T05:43:50.874Z,97.17
2022-12-15T05:46:36.617Z,97.85
2022-12-15T05:49:24.411Z,98.35
2022-12-15T05:52:09.552Z,98.22
2022-12-15T05:54:54.801Z,98.02
2022-12-15T05:57:39.972Z,98.30
2022-12-15T06:00:25.100Z,98.04
2022-12-15T06:03:10.353Z,98.01
2022-12-15T06:05:56.701Z,97.90
2022-12-15T06:08:42.737Z,97.69
2022-12-15T06:11:27.759Z,97.84
2022-12-15T06:14:13.251Z,98.04
2022-12-15T06:16:59.996Z,98.26
2022-12-15T06:19:45.301Z,98.46
2022-12-15T06:22:30.568Z,98.19
2022-12-15T06:25:15.872Z,98.61
2022-12-15T06:28:01.968Z,97.83
2022-12-15T06:30:47.695Z,97.30
2022-12-15T06:33:33.786Z,97.03
2022-12-15T06:36:20.190Z,97.90
2022-12-15T06:39:08.284Z,97.31
2022-12-15T06:41:53.580Z,97.70
2022-12-15T06:44:38.746Z,97.58
2022-12-15T06:47:23.893Z,98.01
2022-12-15T06:50:09.699Z,97.89
2022-12-15T06:52:54.871Z,97.69
2022-12-15T06:55:41.553Z,97.95
2022-12-15T06:58:27.756Z,97.24
2022-12-15T07:01:13.048Z,97.34
2022-12-15T07:04:03.084Z,97.35
2022-12-15T07:06:49.194Z,97.42
2022-12-15T07:09:34.489Z,97.15
2022-12-15T07:12:19.504Z,97.03
2022-12-15T07:15:05.350Z,97.46
2022-12-15T07:17:51.058Z,97.72
2022-12-15T07:20:36.303Z,98.01
2022-12-15T07:23:39.684Z,97.45
2022-12-15T07:26:27.125Z,97.21
2022-12-15T07:29:12.321Z,97.65
2022-12-15T07:31:57.722Z,96.88
2022-12-15T07:34:43.036Z,96.98
2022-12-15T07:37:29.913Z,96.56
2022-12-15T07:40:15.050Z,97.12
2022-12-15T07:43:01.006Z,97.48
2022-12-15T07:45:51.883Z,96.49
2022-12-15T07:48:37.081Z,96.96
2022-12-15T07:51:22.787Z,96.72
2022-12-15T07:54:11.385Z,96.17
2022-12-15T07:56:56.456Z,96.25
2022-12-15T07:59:42.278Z,96.28
2022-12-15T08:02:27.477Z,96.34
2022-12-15T08:05:12.568Z,95.88
2022-12-15T08:07:58.605Z,96.11
2022-12-15T08:10:43.563Z,96.08
2022-12-15T08:14:00.906Z,96.11
2022-12-15T08:16:34.522Z,96.19
2022-12-15T08:19:19.875Z,96.53
2022-12-15T08:22:05.150Z,96.25
2022-12-15T08:24:50.146Z,96.55
2022-12-15T08:27:35.800Z,95.87
2022-12-15T08:30:21.690Z,96.22
2022-12-15T08:33:06.974Z,96.51
2022-12-15T08:35:58.332Z,96.17
2022-12-15T08:38:44.765Z,96.42
2022-12-15T08:41:32.006Z,96.17
2022-12-15T08:44:17.362Z,96.29
2022-12-15T08:47:02.792Z,96.39
2022-12-15T08:49:48.641Z,95.92
2022-12-15T08:52:34.839Z,95.25
2022-12-15T08:55:22.526Z,95.48
2022-12-15T08:58:07.637Z,95.10
2022-12-15T09:00:52.905Z,97.58
2022-12-15T09:03:38.981Z,94.93
2022-12-15T09:06:30.862Z,94.57
2022-12-15T09:09:16.021Z,94.48
2022-12-15T09:12:01.120Z,94.12
2022-12-15T09:14:46.440Z,94.19
2022-12-15T09:17:31.521Z,94.08
2022-12-15T09:20:18.073Z,94.27
2022-12-15T09:23:03.337Z,94.00
2022-12-15T09:25:48.317Z,94.32
2022-12-15T09:28:33.988Z,93.69
2022-12-15T09:31:25.378Z,93.29
2022-12-15T09:34:15.347Z,93.51
2022-12-15T09:37:00.301Z,93.96
2022-12-15T09:39:45.332Z,93.42
2022-12-15T09:42:31.879Z,93.92
2022-12-15T09:45:26.137Z,93.03
2022-12-15T09:48:18.711Z,93.42
2022-12-15T09:51:04.930Z,93.50
2022-12-15T09:53:55.116Z,93.14
2022-12-15T09:56:58.160Z,92.28
2022-12-15T10:00:01.762Z,92.29
2022-12-15T10:03:25.002Z,92.95
2022-12-15T10:06:32.899Z,93.06
2022-12-15T10:09:22.451Z,92.46
2022-12-15T10:12:25.299Z,92.08
2022-12-15T10:15:41.371Z,91.29
2022-12-15T10:18:39.929Z,91.92
2022-12-15T10:21:28.179Z,91.77
2022-12-15T10:27:36.416Z,91.08
2022-12-15T10:30:21.982Z,90.55
2022-12-15T10:33:22.771Z,90.17
2022-12-15T10:36:14.283Z,90.42
2022-12-15T10:38:59.285Z,90.09
2022-12-15T10:41:44.321Z,89.69
2022-12-15T10:44:38.982Z,89.82
2022-12-15T10:47:28.210Z,89.74
2022-12-15T10:50:25.603Z,88.78
2022-12-15T10:53:38.595Z,88.41
2022-12-15T10:56:33.584Z,88.23
2022-12-15T10:59:36.433Z,87.83
2022-12-15T11:02:24.246Z,87.37
2022-12-15T11:05:16.389Z,86.75
2022-12-15T11:08:16.654Z,86.27
2022-12-15T11:11:26.113Z,86.45
2022-12-15T11:14:18.047Z,85.94
2022-12-15T11:17:07.012Z,85.49
2022-12-15T11:20:03.551Z,85.40
2022-12-15T11:22:57.251Z,84.72
2022-12-15T11:25:53.639Z,84.06
2022-12-15T11:29:02.678Z,83.29
2022-12-15T11:31:48.990Z,83.16
2022-12-15T11:34:38.094Z,82.36
2022-12-15T11:37:34.018Z,82.17
2022-12-15T11:40:35.783Z,81.61
2022-12-15T11:43:26.864Z,81.19
2022-12-15T11:46:18.927Z,81.27
2022-12-15T11:49:20.401Z,81.17
2022-12-15T11:52:40.611Z,79.80
2022-12-15T11:55:44.619Z,78.90
2022-12-15T11:59:08.717Z,78.96
2022-12-15T12:02:28.156Z,78.43
2022-12-15T12:05:41.598Z,77.91
2022-12-15T12:08:54.225Z,77.52
2022-12-15T12:11:55.253Z,77.32
2022-12-15T12:15:02.162Z,77.51
2022-12-15T12:17:55.447Z,75.84
2022-12-15T12:20:50.673Z,75.43
2022-12-15T12:23:52.452Z,75.60
2022-12-15T12:26:51.859Z,75.43
2022-12-15T12:29:53.106Z,76.29
2022-12-15T12:32:50.715Z,78.47
2022-12-15T12:35:45.589Z,74.43
2022-12-15T12:38:37.247Z,73.74
2022-12-15T12:41:31.567Z,72.48
2022-12-15T12:44:30.976Z,72.18
2022-12-15T12:47:36.026Z,71.92
2022-12-15T12:50:25.856Z,71.71
2022-12-15T12:53:27.267Z,70.80
2022-12-15T12:56:33.416Z,72.07
2022-12-15T12:59:30.623Z,71.41
2022-12-15T13:02:15.556Z,70.29
2022-12-15T13:05:21.352Z,69.11
2022-12-15T13:08:06.349Z,68.79
2022-12-15T13:10:54.227Z,67.65
2022-12-15T13:13:51.024Z,67.59
2022-12-15T13:19:57.153Z,67.20
2022-12-15T13:22:42.287Z,66.87
2022-12-15T13:25:35.689Z,66.62
2022-12-15T13:28:36.037Z,66.98
2022-12-15T13:31:28.968Z,66.35
2022-12-15T13:34:20.871Z,66.79
2022-12-15T13:37:26.202Z,67.07
2022-12-15T13:40:35.800Z,67.63
2022-12-15T13:43:26.795Z,67.70
2022-12-15T13:46:20.273Z,67.17
2022-12-15T13:49:16.025Z,66.54
2022-12-15T13:52:04.012Z,66.72
2022-12-15T13:55:01.778Z,67.24
2022-12-15T13:58:02.150Z,67.36
2022-12-15T14:00:55.939Z,67.15
2022-12-15T14:04:16.452Z,67.40
2022-12-15T14:07:03.128Z,66.79
2022-12-15T14:09:50.263Z,66.92
2022-12-15T14:12:39.558Z,67.09
2022-12-15T14:15:31.531Z,67.41
2022-12-15T14:18:32.077Z,67.74
2022-12-15T14:21:26.981Z,68.01
2022-12-15T14:24:42.504Z,67.71
2022-12-15T14:27:30.922Z,68.16
2022-12-15T14:30:22.322Z,69.14
2022-12-15T14:33:15.058Z,69.83
2022-12-15T14:36:01.069Z,69.29
2022-12-15T14:39:00.090Z,69.43
2022-12-15T14:41:50.629Z,69.49
2022-12-15T14:44:39.712Z,70.28
2022-12-15T14:47:33.803Z,69.70
2022-12-15T14:53:28.321Z,71.59
2022-12-15T14:56:13.690Z,72.83
2022-12-15T14:59:04.426Z,71.95
2022-12-15T15:01:58.794Z,72.31
2022-12-15T15:03:05.362Z,67.67
2022-12-15T15:03:06.093Z,70.65
2022-12-15T15:04:56.692Z,71.82
2022-12-15T15:07:45.485Z,71.90
2022-12-15T15:10:30.927Z,72.35
2022-12-15T15:13:20.623Z,73.06
2022-12-15T15:16:13.006Z,73.63
2022-12-15T15:19:02.450Z,73.85
2022-12-15T15:21:47.924Z,73.72
2022-12-15T15:24:37.291Z,73.19
2022-12-15T15:27:26.864Z,72.99
2022-12-15T15:30:23.827Z,73.78
2022-12-15T15:33:09.995Z,73.94
2022-12-15T15:35:57.629Z,73.54
2022-12-15T15:38:46.575Z,73.58
2022-12-15T15:41:33.003Z,74.07
2022-12-15T15:44:18.128Z,74.22
2022-12-15T15:47:04.348Z,73.54
2022-12-15T15:49:50.923Z,73.79
2022-12-15T15:52:35.966Z,73.75
2022-12-15T15:55:29.508Z,74.29
2022-12-15T15:58:17.030Z,73.92
2022-12-15T16:01:03.829Z,74.49
2022-12-15T16:03:51.780Z,74.65
2022-12-15T16:06:39.770Z,74.46
2022-12-15T16:09:28.544Z,74.50
2022-12-15T16:12:29.578Z,74.11
2022-12-15T16:15:17.944Z,74.64
2022-12-15T16:18:03.477Z,74.12
2022-12-15T16:20:51.717Z,74.77
2022-12-15T16:23:37.493Z,75.19
2022-12-15T16:26:29.134Z,74.43
2022-12-15T16:29:15.444Z,75.18
2022-12-15T16:32:00.354Z,75.25
2022-12-15T16:34:45.738Z,75.83
2022-12-15T16:37:34.802Z,76.45
2022-12-15T16:40:26.144Z,77.11
2022-12-15T16:43:17.386Z,77.19
2022-12-15T16:46:02.408Z,77.06
2022-12-15T16:48:47.718Z,77.94
2022-12-15T16:51:39.110Z,78.30
2022-12-15T16:54:27.347Z,77.88
2022-12-15T16:57:12.317Z,79.14
2022-12-15T16:59:57.597Z,78.58
2022-12-15T17:02:42.919Z,78.51
2022-12-15T17:05:32.376Z,78.77
2022-12-15T17:08:21.196Z,78.67
2022-12-15T17:11:07.179Z,78.49
2022-12-15T17:13:56.038Z,79.62
2022-12-15T17:16:41.446Z,80.17
2022-12-15T17:19:26.735Z,79.71
2022-12-15T17:22:15.569Z,79.88
2022-12-15T17:25:00.581Z,79.38
2022-12-15T17:27:46.361Z,80.37
2022-12-15T17:30:31.651Z,80.67
2022-12-15T17:33:19.305Z,81.37
2022-12-15T17:36:15.394Z,81.33
2022-12-15T17:39:01.445Z,81.07
2022-12-15T17:42:02.638Z,81.47
2022-12-15T17:44:49.129Z,81.47
2022-12-15T17:47:36.791Z,81.80
2022-12-15T17:50:21.671Z,81.95
2022-12-15T17:53:07.036Z,82.69
2022-12-15T17:55:54.115Z,82.91
2022-12-15T17:58:39.862Z,83.39
2022-12-15T18:01:25.207Z,83.56
2022-12-15T18:04:10.712Z,83.04
2022-12-15T18:07:01.604Z,83.35
2022-12-15T18:09:48.545Z,84.38
2022-12-15T18:12:35.329Z,84.40
2022-12-15T18:15:23.781Z,84.88
2022-12-15T18:18:08.769Z,86.41
2022-12-15T18:21:00.284Z,86.12
2022-12-15T18:23:47.526Z,86.82
2022-12-15T18:26:37.788Z,87.59
2022-12-15T18:29:22.876Z,87.47
2022-12-15T18:32:09.479Z,87.42
2022-12-15T18:34:55.035Z,87.87
2022-12-15T18:37:40.127Z,87.99
2022-12-15T18:40:28.259Z,96.89
2022-12-15T18:43:16.560Z,87.47
2022-12-15T18:46:01.695Z,87.17
2022-12-15T18:48:46.949Z,89.00
2022-12-15T18:51:32.239Z,90.12
2022-12-15T18:54:20.959Z,89.56
2022-12-15T18:57:28.910Z,90.05
2022-12-15T19:00:14.136Z,90.59
2022-12-15T19:03:00.397Z,91.87
2022-12-15T19:05:46.954Z,92.75
2022-12-15T19:08:36.039Z,92.34
2022-12-15T19:11:30.988Z,93.14
2022-12-15T19:14:36.428Z,92.80
2022-12-15T19:17:41.589Z,93.84
2022-12-15T19:20:45.770Z,93.71
2022-12-15T19:23:31.402Z,93.89
2022-12-15T19:26:16.811Z,94.47
2022-12-15T19:29:02.086Z,94.64
2022-12-15T19:31:47.921Z,95.05
2022-12-15T19:34:33.592Z,95.39
2022-12-15T19:37:27.976Z,96.34
2022-12-15T19:40:22.124Z,96.10
2022-12-15T19:43:07.189Z,96.28
2022-12-15T19:45:53.192Z,97.12
2022-12-15T19:48:38.305Z,97.41
2022-12-15T19:51:24.154Z,97.57
2022-12-15T19:54:17.095Z,98.12
2022-12-15T19:57:02.050Z,99.00
2022-12-15T19:59:47.209Z,98.59
2022-12-15T20:02:32.589Z,99.10
2022-12-15T20:05:19.484Z,99.62
2022-12-15T20:08:05.067Z,99.68
2022-12-15T20:10:50.866Z,99.96
2022-12-15T20:13:36.215Z,100.00
2022-12-15T20:16:22.054Z,100.00
2022-12-15T20:19:07.247Z,100.00
2022-12-15T20:21:52.367Z,100.00
2022-12-15T20:24:37.660Z,100.00
2022-12-15T20:27:22.587Z,100.00
2022-12-15T20:30:16.395Z,100.00
2022-12-15T20:33:03.899Z,100.00
2022-12-15T20:35:50.340Z,100.00
2022-12-15T20:38:36.073Z,100.00
2022-12-15T20:41:24.025Z,100.00
2022-12-15T20:44:12.911Z,100.00
2022-12-15T20:46:58.324Z,100.00
2022-12-15T20:49:43.760Z,100.00
2022-12-15T20:52:29.394Z,100.00
2022-12-15T20:55:14.709Z,100.00
2022-12-15T20:57:59.778Z,100.00
2022-12-15T21:00:46.442Z,100.00
2022-12-15T21:03:34.932Z,100.00
2022-12-15T21:06:20.942Z,100.00
2022-12-15T21:09:11.988Z,100.00
2022-12-15T21:11:58.379Z,100.00
2022-12-15T21:14:43.476Z,100.00
2022-12-15T21:17:28.776Z,100.00
2022-12-15T21:20:14.192Z,100.00
2022-12-15T21:22:59.578Z,100.00
2022-12-15T21:25:45.668Z,100.00
2022-12-15T21:28:30.818Z,100.00
2022-12-15T21:31:17.279Z,100.00
2022-12-15T21:34:02.346Z,100.00
2022-12-15T21:36:51.719Z,100.00
2022-12-15T21:39:37.552Z,100.00
2022-12-15T21:42:22.851Z,100.00
2022-12-15T21:45:19.753Z,100.00
2022-12-15T21:48:23.128Z,100.00
2022-12-15T21:51:13.408Z,100.00
2022-12-15T21:53:59.019Z,100.00
2022-12-15T21:56:45.534Z,100.00
2022-12-15T21:59:32.608Z,100.00
2022-12-15T22:02:26.809Z,100.00
2022-12-15T22:05:23.557Z,100.00
2022-12-15T22:08:20.353Z,100.00
2022-12-15T22:11:12.116Z,100.00
2022-12-15T22:14:00.766Z,99.84
2022-12-15T22:16:45.560Z,100.00
2022-12-15T22:19:30.662Z,100.00
2022-12-15T22:22:16.571Z,100.00
2022-12-15T22:25:01.612Z,100.00
2022-12-15T22:27:47.896Z,100.00
2022-12-15T22:30:33.104Z,100.00
2022-12-15T22:33:23.873Z,100.00
2022-12-15T22:36:09.092Z,100.00
2022-12-15T22:38:54.142Z,100.00
2022-12-15T22:41:43.681Z,100.00
2022-12-15T22:44:34.604Z,100.00
2022-12-15T22:47:19.859Z,100.00
2022-12-15T22:50:07.045Z,100.00
2022-12-15T22:52:52.765Z,100.00
2022-12-15T22:55:41.241Z,100.00
2022-12-15T22:58:36.892Z,100.00
2022-12-15T23:01:22.148Z,100.00
2022-12-15T23:04:07.574Z,100.00
2022-12-15T23:06:52.992Z,100.00
2022-12-15T23:09:40.283Z,100.00
2022-12-15T23:12:25.211Z,100.00
2022-12-15T23:15:29.255Z,100.00
2022-12-15T23:18:14.717Z,100.00
2022-12-15T23:20:59.698Z,100.00
2022-12-15T23:23:45.048Z,100.00
2022-12-15T23:26:30.194Z,100.00
2022-12-15T23:29:15.503Z,100.00
2022-12-15T23:32:00.653Z,100.00
2022-12-15T23:34:45.868Z,100.00
2022-12-15T23:37:31.355Z,100.00
2022-12-15T23:40:21.347Z,100.00
2022-12-15T23:43:06.194Z,100.00
2022-12-15T23:46:00.184Z,100.00
2022-12-15T23:48:45.426Z,100.00
2022-12-15T23:51:30.496Z,100.00
2022-12-15T23:54:15.671Z,100.00
2022-12-15T23:57:01.078Z,100.00
2022-12-15T23:59:46.317Z,100.00
